createdAt,value
2023-04-03T00:01:49.047Z,99.90
2023-04-03T00:06:47.279Z,99.90
2023-04-03T00:11:45.517Z,99.90
2023-04-03T00:16:43.735Z,99.90
2023-04-03T00:21:43.415Z,99.90
2023-04-03T00:26:41.607Z,99.90
2023-04-03T00:31:39.628Z,99.90
2023-04-03T00:36:38.050Z,99.90
2023-04-03T00:41:37.741Z,99.90
2023-04-03T00:46:36.363Z,99.90
2023-04-03T00:51:34.649Z,99.90
2023-04-03T00:56:34.486Z,99.90
2023-04-03T01:01:34.449Z,99.90
2023-04-03T01:06:35.892Z,99.90
2023-04-03T01:11:38.305Z,99.90
2023-04-03T01:16:37.951Z,99.90
2023-04-03T01:22:18.125Z,99.90
2023-04-03T01:27:16.905Z,99.90
2023-04-03T01:32:16.626Z,99.90
2023-04-03T01:37:14.957Z,99.90
2023-04-03T01:42:13.472Z,99.90
2023-04-03T01:47:16.507Z,99.90
2023-04-03T01:52:14.683Z,99.90
2023-04-03T01:57:14.980Z,99.90
2023-04-03T02:02:15.691Z,99.90
2023-04-03T02:07:15.366Z,99.90
2023-04-03T02:12:13.803Z,99.90
2023-04-03T02:17:12.068Z,99.90
2023-04-03T02:22:10.371Z,99.90
2023-04-03T02:27:09.862Z,99.90
2023-04-03T02:32:08.249Z,99.90
2023-04-03T02:37:07.485Z,99.90
2023-04-03T02:42:06.139Z,99.90
2023-04-03T02:47:07.073Z,99.90
2023-04-03T02:52:05.501Z,99.90
2023-04-03T02:57:04.112Z,99.90
2023-04-03T03:02:02.464Z,99.90
2023-04-03T03:07:02.334Z,99.90
2023-04-03T03:12:00.522Z,99.90
2023-04-03T03:16:58.884Z,99.90
2023-04-03T03:21:58.033Z,99.90
2023-04-03T03:26:57.681Z,99.90
2023-04-03T03:31:56.300Z,99.90
2023-04-03T03:36:54.605Z,99.90
2023-04-03T03:41:54.524Z,99.90
2023-04-03T03:46:54.955Z,99.90
2023-04-03T03:51:53.553Z,99.90
2023-04-03T03:56:51.918Z,99.90
2023-04-03T04:01:50.902Z,99.90
2023-04-03T04:06:50.685Z,99.90
2023-04-03T04:11:49.064Z,99.90
2023-04-03T04:16:49.653Z,99.90
2023-04-03T04:21:55.815Z,99.90
2023-04-03T04:26:54.434Z,99.90
2023-04-03T04:31:53.635Z,99.90
2023-04-03T04:36:55.523Z,99.90
2023-04-03T04:41:54.142Z,99.90
2023-04-03T04:46:52.795Z,99.90
2023-04-03T04:51:52.618Z,99.90
2023-04-03T04:56:58.533Z,99.90
2023-04-03T05:01:58.569Z,99.90
2023-04-03T05:06:58.076Z,99.90
2023-04-03T05:12:01.298Z,99.90
2023-04-03T05:17:03.958Z,99.90
2023-04-03T05:22:05.894Z,99.90
2023-04-03T05:27:06.543Z,99.90
2023-04-03T05:32:08.455Z,99.90
2023-04-03T05:37:06.589Z,99.90
2023-04-03T05:42:07.013Z,99.90
2023-04-03T05:47:06.195Z,99.90
2023-04-03T05:52:05.039Z,99.90
2023-04-03T05:57:06.250Z,99.90
2023-04-03T06:02:04.703Z,99.90
2023-04-03T06:07:03.360Z,99.90
2023-04-03T06:12:02.334Z,99.90
2023-04-03T06:17:03.325Z,99.90
2023-04-03T06:22:01.839Z,99.90
2023-04-03T06:27:00.894Z,99.90
2023-04-03T06:31:59.181Z,99.90
2023-04-03T06:36:58.761Z,99.90
2023-04-03T06:41:57.007Z,99.90
2023-04-03T06:47:05.556Z,99.90
2023-04-03T06:52:05.947Z,99.90
2023-04-03T06:57:04.625Z,99.90
2023-04-03T07:02:03.058Z,99.90
2023-04-03T07:07:01.358Z,99.90
2023-04-03T07:12:01.160Z,99.90
2023-04-03T07:16:59.374Z,99.90
2023-04-03T07:21:57.665Z,99.90
2023-04-03T07:26:55.868Z,99.90
2023-04-03T07:31:56.534Z,99.90
2023-04-03T07:36:54.600Z,99.90
2023-04-03T07:41:53.181Z,99.90
2023-04-03T07:46:51.665Z,99.90
2023-04-03T07:51:51.272Z,99.90
2023-04-03T07:56:50.453Z,99.90
2023-04-03T08:01:48.702Z,99.90
2023-04-03T08:06:47.389Z,99.90
2023-04-03T08:11:47.239Z,99.90
2023-04-03T08:16:45.842Z,99.90
2023-04-03T08:21:43.901Z,99.90
2023-04-03T08:26:42.287Z,99.90
2023-04-03T08:31:41.911Z,99.90
2023-04-03T08:36:40.108Z,99.90
2023-04-03T08:41:40.971Z,99.90
2023-04-03T08:46:50.016Z,99.90
2023-04-03T08:51:50.727Z,99.90
2023-04-03T08:56:49.133Z,99.90
2023-04-03T09:01:49.376Z,99.90
2023-04-03T09:06:54.813Z,99.90
2023-04-03T09:12:02.159Z,99.90
2023-04-03T09:17:02.966Z,99.90
2023-04-03T09:22:04.795Z,99.90
2023-04-03T09:27:07.580Z,99.90
2023-04-03T09:32:23.399Z,99.90
2023-04-03T09:37:39.991Z,93.60
2023-04-03T09:42:46.283Z,86.90
2023-04-03T09:47:48.484Z,74.70
2023-04-03T09:52:49.257Z,76.40
2023-04-03T09:57:52.163Z,77.90
2023-04-03T10:02:56.752Z,77.70
2023-04-03T10:13:12.275Z,71.00
2023-04-03T10:18:34.853Z,75.80
2023-04-03T10:23:42.496Z,79.30
2023-04-03T10:28:50.172Z,79.00
2023-04-03T10:34:00.805Z,83.30
2023-04-03T10:39:06.697Z,83.00
2023-04-03T10:44:15.122Z,81.70
2023-04-03T10:49:28.277Z,79.60
2023-04-03T10:54:28.327Z,80.30
2023-04-03T10:59:32.523Z,79.40
2023-04-03T11:04:37.629Z,80.40
2023-04-03T11:09:39.327Z,81.00
2023-04-03T11:14:47.135Z,75.00
2023-04-03T11:19:57.312Z,77.30
2023-04-03T11:25:04.561Z,79.40
2023-04-03T11:30:02.973Z,81.70
2023-04-03T11:35:04.564Z,81.10
2023-04-03T11:40:06.365Z,80.10
2023-04-03T11:45:32.363Z,81.30
2023-04-03T11:50:46.069Z,80.80
2023-04-03T11:56:06.074Z,78.70
2023-04-03T12:01:12.015Z,79.20
2023-04-03T12:06:57.558Z,79.80
2023-04-03T12:11:58.868Z,81.00
2023-04-03T12:16:59.165Z,82.10
2023-04-03T12:22:15.600Z,81.10
2023-04-03T12:27:26.348Z,81.20
2023-04-03T12:32:58.941Z,82.00
2023-04-03T12:38:35.839Z,82.80
2023-04-03T12:43:51.638Z,83.90
2023-04-03T12:48:55.618Z,83.70
2023-04-03T12:54:00.217Z,83.40
2023-04-03T12:59:16.872Z,84.50
2023-04-03T13:04:15.205Z,86.40
2023-04-03T13:09:23.766Z,84.70
2023-04-03T13:14:33.009Z,81.30
2023-04-03T13:19:32.986Z,82.30
2023-04-03T13:24:33.490Z,84.70
2023-04-03T13:29:35.862Z,83.50
2023-04-03T13:34:39.220Z,83.30
2023-04-03T13:39:40.820Z,82.20
2023-04-03T13:44:40.864Z,83.00
2023-04-03T13:49:40.791Z,84.10
2023-04-03T13:54:41.007Z,86.70
2023-04-03T13:59:40.652Z,85.20
2023-04-03T14:04:50.452Z,85.70
2023-04-03T14:09:48.850Z,84.40
2023-04-03T14:14:48.575Z,85.60
2023-04-03T14:19:47.624Z,85.70
2023-04-03T14:24:47.513Z,85.00
2023-04-03T14:29:45.859Z,86.20
2023-04-03T14:34:46.252Z,86.90
2023-04-03T14:39:45.519Z,85.70
2023-04-03T14:44:43.688Z,84.40
2023-04-03T14:49:42.592Z,81.70
2023-04-03T14:54:42.897Z,82.60
2023-04-03T14:59:41.312Z,86.70
2023-04-03T15:04:39.728Z,86.30
2023-04-03T15:09:39.279Z,83.80
2023-04-03T15:19:41.601Z,86.00
2023-04-03T15:24:40.377Z,86.70
2023-04-03T15:29:41.271Z,88.40
2023-04-03T15:34:40.004Z,90.30
2023-04-03T15:39:38.301Z,90.30
2023-04-03T15:44:37.226Z,90.80
2023-04-03T15:49:37.141Z,91.90
2023-04-03T15:54:35.540Z,91.80
2023-04-03T15:59:33.779Z,91.90
2023-04-03T16:04:32.576Z,91.30
2023-04-03T16:09:32.356Z,91.60
2023-04-03T16:14:31.398Z,91.10
2023-04-03T16:19:30.706Z,91.00
2023-04-03T16:24:28.996Z,91.50
2023-04-03T16:29:28.583Z,91.90
2023-04-03T16:34:27.519Z,92.20
2023-04-03T16:39:25.720Z,92.30
2023-04-03T16:44:23.775Z,93.20
2023-04-03T16:49:23.591Z,90.20
2023-04-03T16:54:22.230Z,90.30
2023-04-03T16:59:21.220Z,83.70
2023-04-03T17:04:19.770Z,79.80
2023-04-03T17:09:21.940Z,79.00
2023-04-03T17:14:20.821Z,82.80
2023-04-03T17:19:19.523Z,84.40
2023-04-03T17:24:19.132Z,87.30
2023-04-03T17:29:17.446Z,87.70
2023-04-03T17:34:15.846Z,89.20
2023-04-03T17:39:14.108Z,90.00
2023-04-03T17:44:13.715Z,90.80
2023-04-03T17:49:15.297Z,91.40
2023-04-03T17:54:13.859Z,92.00
2023-04-03T17:59:13.656Z,92.50
2023-04-03T18:04:12.677Z,92.90
2023-04-03T18:09:15.465Z,93.10
2023-04-03T18:14:17.390Z,93.40
2023-04-03T18:24:19.862Z,94.40
2023-04-03T18:29:19.807Z,94.80
2023-04-03T18:34:18.039Z,95.50
2023-04-03T18:39:16.340Z,95.40
2023-04-03T18:44:16.890Z,95.30
2023-04-03T18:49:18.297Z,96.00
2023-04-03T18:54:16.473Z,95.50
2023-04-03T18:59:14.909Z,95.90
2023-04-03T19:04:13.332Z,96.30
2023-04-03T19:09:12.995Z,96.40
2023-04-03T19:14:16.791Z,97.30
2023-04-03T19:19:15.570Z,97.10
2023-04-03T19:24:15.456Z,97.70
2023-04-03T19:29:13.760Z,98.10
2023-04-03T19:34:12.054Z,98.40
2023-04-03T19:39:10.366Z,99.30
2023-04-03T19:44:10.599Z,99.90
2023-04-03T19:49:08.823Z,99.90
2023-04-03T19:54:07.195Z,99.90
2023-04-03T19:59:05.243Z,99.90
2023-04-03T20:04:05.120Z,99.90
2023-04-03T20:09:03.312Z,99.90
2023-04-03T20:14:01.586Z,99.90
2023-04-03T20:19:03.484Z,99.90
2023-04-03T20:24:04.253Z,99.90
2023-04-03T20:29:03.512Z,99.90
2023-04-03T20:34:02.134Z,99.90
2023-04-03T20:39:00.518Z,99.90
2023-04-03T20:44:00.512Z,99.90
2023-04-03T20:48:59.627Z,99.90
2023-04-03T20:53:57.992Z,99.90
2023-04-03T20:58:58.083Z,99.90
2023-04-03T21:04:02.547Z,99.90
2023-04-03T21:09:38.010Z,99.90
2023-04-03T21:15:14.003Z,99.90
2023-04-03T21:20:13.555Z,99.90
2023-04-03T21:25:12.026Z,99.90
2023-04-03T21:30:11.420Z,99.90
2023-04-03T21:35:09.940Z,99.90
2023-04-03T21:40:10.304Z,99.90
2023-04-03T21:45:09.558Z,99.90
2023-04-03T21:50:08.886Z,99.90
2023-04-03T21:55:09.819Z,99.90
2023-04-03T22:00:10.969Z,99.90
2023-04-03T22:05:09.769Z,99.90
2023-04-03T22:10:09.934Z,99.90
2023-04-03T22:15:09.710Z,99.90
2023-04-03T22:20:09.815Z,99.90
2023-04-03T22:25:10.450Z,99.90
2023-04-03T22:30:09.753Z,99.90
2023-04-03T22:35:09.020Z,99.90
2023-04-03T22:40:10.057Z,99.90
2023-04-03T22:45:09.350Z,99.90
2023-04-03T22:50:08.166Z,99.90
2023-04-03T22:55:18.609Z,99.90
2023-04-03T23:00:20.730Z,99.90
2023-04-03T23:05:18.937Z,99.90
2023-04-03T23:10:17.938Z,99.90
2023-04-03T23:15:17.696Z,99.90
2023-04-03T23:20:17.645Z,99.90
2023-04-03T23:25:15.982Z,99.90
2023-04-03T23:30:14.469Z,99.90
2023-04-03T23:35:12.741Z,99.90
2023-04-03T23:40:13.950Z,99.90
2023-04-03T23:45:12.653Z,99.90
2023-04-03T23:50:11.599Z,99.90
2023-04-03T23:55:10.044Z,99.90
